sensor_id;sensor_type;location;lat;lon;timestamp;P1;durP1;ratioP1;P2;durP2;ratioP2
19861;SDS011;10093;48.148;8.542;2023-06-10T00:00:44;6.90;;;6.20;;
19861;SDS011;10093;48.148;8.542;2023-06-10T00:03:10;6.13;;;5.53;;
19861;SDS011;10093;48.148;8.542;2023-06-10T00:05:36;6.60;;;5.78;;
19861;SDS011;10093;48.148;8.542;2023-06-10T00:08:03;9.90;;;5.70;;
19861;SDS011;10093;48.148;8.542;2023-06-10T00:10:32;6.80;;;5.35;;
19861;SDS011;10093;48.148;8.542;2023-06-10T00:13:01;9.45;;;6.13;;
19861;SDS011;10093;48.148;8.542;2023-06-10T00:15:28;6.88;;;5.82;;
19861;SDS011;10093;48.148;8.542;2023-06-10T00:17:54;5.93;;;5.32;;
19861;SDS011;10093;48.148;8.542;2023-06-10T00:20:20;7.20;;;5.80;;
19861;SDS011;10093;48.148;8.542;2023-06-10T00:22:47;6.32;;;5.53;;
19861;SDS011;10093;48.148;8.542;2023-06-10T00:25:13;6.30;;;5.70;;
19861;SDS011;10093;48.148;8.542;2023-06-10T00:27:39;11.02;;;5.90;;
19861;SDS011;10093;48.148;8.542;2023-06-10T00:30:05;7.40;;;6.25;;
19861;SDS011;10093;48.148;8.542;2023-06-10T00:32:35;6.63;;;5.95;;
19861;SDS011;10093;48.148;8.542;2023-06-10T00:35:01;6.13;;;5.55;;
19861;SDS011;10093;48.148;8.542;2023-06-10T00:37:28;8.80;;;6.00;;
19861;SDS011;10093;48.148;8.542;2023-06-10T00:39:54;7.05;;;6.32;;
19861;SDS011;10093;48.148;8.542;2023-06-10T00:42:20;6.95;;;5.32;;
19861;SDS011;10093;48.148;8.542;2023-06-10T00:44:47;9.43;;;6.60;;
19861;SDS011;10093;48.148;8.542;2023-06-10T00:47:13;8.05;;;5.65;;
19861;SDS011;10093;48.148;8.542;2023-06-10T00:49:39;6.30;;;5.70;;
19861;SDS011;10093;48.148;8.542;2023-06-10T00:52:05;7.78;;;6.00;;
19861;SDS011;10093;48.148;8.542;2023-06-10T00:54:32;7.20;;;6.28;;
19861;SDS011;10093;48.148;8.542;2023-06-10T00:57:00;6.32;;;5.72;;
19861;SDS011;10093;48.148;8.542;2023-06-10T00:59:26;8.15;;;6.10;;
19861;SDS011;10093;48.148;8.542;2023-06-10T01:01:53;7.35;;;6.32;;
19861;SDS011;10093;48.148;8.542;2023-06-10T01:04:20;6.75;;;6.15;;
19861;SDS011;10093;48.148;8.542;2023-06-10T01:15:13;10.35;;;7.03;;
19861;SDS011;10093;48.148;8.542;2023-06-10T01:18:01;6.85;;;6.13;;
19861;SDS011;10093;48.148;8.542;2023-06-10T01:20:29;6.93;;;5.90;;
19861;SDS011;10093;48.148;8.542;2023-06-10T01:22:57;6.75;;;6.15;;
19861;SDS011;10093;48.148;8.542;2023-06-10T01:25:24;8.45;;;6.68;;
19861;SDS011;10093;48.148;8.542;2023-06-10T01:28:04;7.50;;;6.80;;
19861;SDS011;10093;48.148;8.542;2023-06-10T01:33:12;6.50;;;5.63;;
19861;SDS011;10093;48.148;8.542;2023-06-10T01:35:41;6.80;;;6.18;;
19861;SDS011;10093;48.148;8.542;2023-06-10T01:38:09;7.80;;;6.72;;
19861;SDS011;10093;48.148;8.542;2023-06-10T01:40:36;8.27;;;7.03;;
19861;SDS011;10093;48.148;8.542;2023-06-10T01:43:03;10.73;;;7.68;;
19861;SDS011;10093;48.148;8.542;2023-06-10T01:45:29;9.75;;;7.07;;
19861;SDS011;10093;48.148;8.542;2023-06-10T01:47:55;8.73;;;6.72;;
19861;SDS011;10093;48.148;8.542;2023-06-10T01:50:20;8.82;;;6.60;;
19861;SDS011;10093;48.148;8.542;2023-06-10T01:52:46;9.10;;;7.15;;
19861;SDS011;10093;48.148;8.542;2023-06-10T01:55:12;8.70;;;6.60;;
19861;SDS011;10093;48.148;8.542;2023-06-10T01:57:37;8.23;;;6.15;;
19861;SDS011;10093;48.148;8.542;2023-06-10T02:00:03;7.63;;;6.70;;
19861;SDS011;10093;48.148;8.542;2023-06-10T02:02:29;8.38;;;7.47;;
19861;SDS011;10093;48.148;8.542;2023-06-10T02:04:54;9.05;;;6.63;;
19861;SDS011;10093;48.148;8.542;2023-06-10T02:07:20;8.48;;;7.57;;
19861;SDS011;10093;48.148;8.542;2023-06-10T02:09:46;7.20;;;6.50;;
19861;SDS011;10093;48.148;8.542;2023-06-10T02:12:11;8.75;;;6.90;;
19861;SDS011;10093;48.148;8.542;2023-06-10T02:14:37;7.68;;;6.60;;
19861;SDS011;10093;48.148;8.542;2023-06-10T02:17:02;10.20;;;7.20;;
19861;SDS011;10093;48.148;8.542;2023-06-10T02:19:29;8.23;;;7.15;;
19861;SDS011;10093;48.148;8.542;2023-06-10T02:21:55;7.60;;;6.80;;
19861;SDS011;10093;48.148;8.542;2023-06-10T02:24:21;8.43;;;7.38;;
19861;SDS011;10093;48.148;8.542;2023-06-10T02:26:47;10.57;;;7.75;;
19861;SDS011;10093;48.148;8.542;2023-06-10T02:29:13;8.60;;;7.80;;
19861;SDS011;10093;48.148;8.542;2023-06-10T02:31:38;11.52;;;7.72;;
19861;SDS011;10093;48.148;8.542;2023-06-10T02:34:04;9.15;;;8.25;;
19861;SDS011;10093;48.148;8.542;2023-06-10T02:36:30;7.93;;;7.20;;
19861;SDS011;10093;48.148;8.542;2023-06-10T02:38:56;10.60;;;8.30;;
19861;SDS011;10093;48.148;8.542;2023-06-10T02:41:22;9.05;;;8.15;;
19861;SDS011;10093;48.148;8.542;2023-06-10T02:43:48;9.23;;;7.90;;
19861;SDS011;10093;48.148;8.542;2023-06-10T02:46:13;8.27;;;7.47;;
19861;SDS011;10093;48.148;8.542;2023-06-10T02:48:42;8.63;;;7.78;;
19861;SDS011;10093;48.148;8.542;2023-06-10T02:51:11;9.43;;;7.78;;
19861;SDS011;10093;48.148;8.542;2023-06-10T02:53:37;10.70;;;8.30;;
19861;SDS011;10093;48.148;8.542;2023-06-10T02:56:03;8.98;;;8.05;;
19861;SDS011;10093;48.148;8.542;2023-06-10T02:58:29;8.48;;;7.63;;
19861;SDS011;10093;48.148;8.542;2023-06-10T03:00:55;8.65;;;7.75;;
19861;SDS011;10093;48.148;8.542;2023-06-10T03:03:21;9.38;;;7.95;;
19861;SDS011;10093;48.148;8.542;2023-06-10T03:05:47;9.63;;;8.05;;
19861;SDS011;10093;48.148;8.542;2023-06-10T03:08:13;8.45;;;7.43;;
19861;SDS011;10093;48.148;8.542;2023-06-10T03:10:39;8.48;;;7.68;;
19861;SDS011;10093;48.148;8.542;2023-06-10T03:13:04;9.02;;;8.13;;
19861;SDS011;10093;48.148;8.542;2023-06-10T03:15:30;8.05;;;7.22;;
19861;SDS011;10093;48.148;8.542;2023-06-10T03:17:57;8.88;;;7.85;;
19861;SDS011;10093;48.148;8.542;2023-06-10T03:20:25;8.90;;;8.00;;
19861;SDS011;10093;48.148;8.542;2023-06-10T03:22:52;9.68;;;7.85;;
19861;SDS011;10093;48.148;8.542;2023-06-10T03:25:18;13.27;;;9.20;;
19861;SDS011;10093;48.148;8.542;2023-06-10T03:27:45;9.75;;;8.75;;
19861;SDS011;10093;48.148;8.542;2023-06-10T03:30:12;10.25;;;9.15;;
19861;SDS011;10093;48.148;8.542;2023-06-10T03:32:38;11.10;;;9.32;;
19861;SDS011;10093;48.148;8.542;2023-06-10T03:35:06;9.05;;;8.23;;
19861;SDS011;10093;48.148;8.542;2023-06-10T03:37:32;10.93;;;9.02;;
19861;SDS011;10093;48.148;8.542;2023-06-10T03:39:57;11.10;;;9.93;;
19861;SDS011;10093;48.148;8.542;2023-06-10T03:42:23;10.90;;;9.43;;
19861;SDS011;10093;48.148;8.542;2023-06-10T03:44:49;13.82;;;8.50;;
19861;SDS011;10093;48.148;8.542;2023-06-10T03:47:14;11.13;;;9.23;;
19861;SDS011;10093;48.148;8.542;2023-06-10T03:49:41;10.20;;;9.13;;
19861;SDS011;10093;48.148;8.542;2023-06-10T03:52:06;12.45;;;8.65;;
19861;SDS011;10093;48.148;8.542;2023-06-10T03:54:32;8.95;;;7.88;;
19861;SDS011;10093;48.148;8.542;2023-06-10T03:56:59;9.10;;;7.95;;
19861;SDS011;10093;48.148;8.542;2023-06-10T03:59:25;8.48;;;7.68;;
19861;SDS011;10093;48.148;8.542;2023-06-10T04:01:51;9.05;;;8.15;;
19861;SDS011;10093;48.148;8.542;2023-06-10T04:04:17;9.25;;;8.35;;
19861;SDS011;10093;48.148;8.542;2023-06-10T04:06:42;8.73;;;7.50;;
19861;SDS011;10093;48.148;8.542;2023-06-10T04:09:09;8.40;;;7.32;;
19861;SDS011;10093;48.148;8.542;2023-06-10T04:11:35;8.60;;;7.70;;
19861;SDS011;10093;48.148;8.542;2023-06-10T04:14:01;8.95;;;8.07;;
19861;SDS011;10093;48.148;8.542;2023-06-10T04:16:27;8.35;;;7.22;;
19861;SDS011;10093;48.148;8.542;2023-06-10T04:18:52;10.18;;;7.75;;
19861;SDS011;10093;48.148;8.542;2023-06-10T04:21:18;9.40;;;7.60;;
19861;SDS011;10093;48.148;8.542;2023-06-10T04:23:44;8.00;;;7.10;;
19861;SDS011;10093;48.148;8.542;2023-06-10T04:26:09;10.02;;;8.25;;
19861;SDS011;10093;48.148;8.542;2023-06-10T04:28:37;9.43;;;7.38;;
19861;SDS011;10093;48.148;8.542;2023-06-10T04:31:03;8.68;;;7.80;;
19861;SDS011;10093;48.148;8.542;2023-06-10T04:33:29;7.57;;;6.88;;
19861;SDS011;10093;48.148;8.542;2023-06-10T04:35:55;8.77;;;7.88;;
19861;SDS011;10093;48.148;8.542;2023-06-10T04:38:21;10.77;;;8.25;;
19861;SDS011;10093;48.148;8.542;2023-06-10T04:40:46;8.10;;;7.30;;
19861;SDS011;10093;48.148;8.542;2023-06-10T04:43:12;9.90;;;7.43;;
19861;SDS011;10093;48.148;8.542;2023-06-10T04:45:38;7.82;;;7.03;;
19861;SDS011;10093;48.148;8.542;2023-06-10T04:48:04;8.00;;;7.20;;
19861;SDS011;10093;48.148;8.542;2023-06-10T04:50:30;7.60;;;6.38;;
19861;SDS011;10093;48.148;8.542;2023-06-10T04:52:58;10.30;;;7.03;;
19861;SDS011;10093;48.148;8.542;2023-06-10T04:55:23;8.32;;;7.07;;
19861;SDS011;10093;48.148;8.542;2023-06-10T04:57:50;7.80;;;6.68;;
19861;SDS011;10093;48.148;8.542;2023-06-10T05:00:16;8.07;;;7.28;;
19861;SDS011;10093;48.148;8.542;2023-06-10T05:02:42;8.13;;;7.40;;
19861;SDS011;10093;48.148;8.542;2023-06-10T05:05:08;8.13;;;7.20;;
19861;SDS011;10093;48.148;8.542;2023-06-10T05:07:33;7.57;;;6.88;;
19861;SDS011;10093;48.148;8.542;2023-06-10T05:09:59;7.15;;;6.40;;
19861;SDS011;10093;48.148;8.542;2023-06-10T05:12:25;7.57;;;5.70;;
19861;SDS011;10093;48.148;8.542;2023-06-10T05:14:51;6.05;;;5.35;;
19861;SDS011;10093;48.148;8.542;2023-06-10T05:17:17;8.68;;;4.78;;
19861;SDS011;10093;48.148;8.542;2023-06-10T05:19:42;4.97;;;4.57;;
19861;SDS011;10093;48.148;8.542;2023-06-10T05:22:09;5.00;;;4.50;;
19861;SDS011;10093;48.148;8.542;2023-06-10T05:24:34;4.90;;;4.50;;
19861;SDS011;10093;48.148;8.542;2023-06-10T05:27:00;5.30;;;4.80;;
19861;SDS011;10093;48.148;8.542;2023-06-10T05:29:26;5.65;;;4.80;;
19861;SDS011;10093;48.148;8.542;2023-06-10T05:31:51;5.47;;;4.93;;
19861;SDS011;10093;48.148;8.542;2023-06-10T05:34:17;6.10;;;4.55;;
19861;SDS011;10093;48.148;8.542;2023-06-10T05:36:43;5.72;;;5.13;;
19861;SDS011;10093;48.148;8.542;2023-06-10T05:39:09;5.30;;;4.80;;
19861;SDS011;10093;48.148;8.542;2023-06-10T05:41:35;5.82;;;5.32;;
19861;SDS011;10093;48.148;8.542;2023-06-10T05:44:01;5.82;;;4.70;;
19861;SDS011;10093;48.148;8.542;2023-06-10T05:46:26;5.30;;;4.30;;
19861;SDS011;10093;48.148;8.542;2023-06-10T05:48:52;5.07;;;4.57;;
19861;SDS011;10093;48.148;8.542;2023-06-10T05:51:18;5.70;;;5.10;;
19861;SDS011;10093;48.148;8.542;2023-06-10T05:53:43;4.90;;;4.50;;
19861;SDS011;10093;48.148;8.542;2023-06-10T05:56:11;4.72;;;4.18;;
19861;SDS011;10093;48.148;8.542;2023-06-10T05:58:37;5.90;;;5.25;;
19861;SDS011;10093;48.148;8.542;2023-06-10T06:01:03;5.00;;;4.53;;
19861;SDS011;10093;48.148;8.542;2023-06-10T06:03:29;4.47;;;4.18;;
19861;SDS011;10093;48.148;8.542;2023-06-10T06:05:54;5.85;;;4.80;;
19861;SDS011;10093;48.148;8.542;2023-06-10T06:08:20;5.63;;;5.13;;
19861;SDS011;10093;48.148;8.542;2023-06-10T06:10:45;5.15;;;4.57;;
19861;SDS011;10093;48.148;8.542;2023-06-10T06:13:12;4.72;;;4.30;;
19861;SDS011;10093;48.148;8.542;2023-06-10T06:15:38;5.85;;;4.88;;
19861;SDS011;10093;48.148;8.542;2023-06-10T06:18:04;4.93;;;4.45;;
19861;SDS011;10093;48.148;8.542;2023-06-10T06:20:29;4.80;;;4.43;;
19861;SDS011;10093;48.148;8.542;2023-06-10T06:22:55;5.43;;;4.88;;
19861;SDS011;10093;48.148;8.542;2023-06-10T06:25:20;6.15;;;4.90;;
19861;SDS011;10093;48.148;8.542;2023-06-10T06:27:46;5.18;;;4.68;;
19861;SDS011;10093;48.148;8.542;2023-06-10T06:30:12;5.50;;;5.00;;
19861;SDS011;10093;48.148;8.542;2023-06-10T06:32:37;5.40;;;4.90;;
19861;SDS011;10093;48.148;8.542;2023-06-10T06:35:03;5.20;;;4.60;;
19861;SDS011;10093;48.148;8.542;2023-06-10T06:37:32;6.38;;;4.85;;
19861;SDS011;10093;48.148;8.542;2023-06-10T06:39:58;4.53;;;4.13;;
19861;SDS011;10093;48.148;8.542;2023-06-10T06:42:24;4.93;;;4.40;;
19861;SDS011;10093;48.148;8.542;2023-06-10T06:44:50;5.75;;;5.22;;
19861;SDS011;10093;48.148;8.542;2023-06-10T06:47:15;7.10;;;5.40;;
19861;SDS011;10093;48.148;8.542;2023-06-10T06:49:48;6.10;;;5.30;;
19861;SDS011;10093;48.148;8.542;2023-06-10T06:52:14;5.35;;;4.85;;
19861;SDS011;10093;48.148;8.542;2023-06-10T06:54:40;7.10;;;4.85;;
19861;SDS011;10093;48.148;8.542;2023-06-10T06:57:07;9.20;;;4.38;;
19861;SDS011;10093;48.148;8.542;2023-06-10T06:59:33;5.85;;;4.60;;
19861;SDS011;10093;48.148;8.542;2023-06-10T07:01:58;8.25;;;3.92;;
19861;SDS011;10093;48.148;8.542;2023-06-10T07:04:24;10.43;;;4.47;;
19861;SDS011;10093;48.148;8.542;2023-06-10T07:06:50;7.38;;;4.45;;
19861;SDS011;10093;48.148;8.542;2023-06-10T07:09:16;7.22;;;4.00;;
19861;SDS011;10093;48.148;8.542;2023-06-10T07:11:41;7.40;;;4.22;;
19861;SDS011;10093;48.148;8.542;2023-06-10T07:14:07;4.72;;;4.03;;
19861;SDS011;10093;48.148;8.542;2023-06-10T07:16:33;5.00;;;3.92;;
19861;SDS011;10093;48.148;8.542;2023-06-10T07:18:59;5.68;;;4.10;;
19861;SDS011;10093;48.148;8.542;2023-06-10T07:21:24;7.38;;;4.65;;
19861;SDS011;10093;48.148;8.542;2023-06-10T07:23:50;5.40;;;4.30;;
19861;SDS011;10093;48.148;8.542;2023-06-10T07:26:18;4.97;;;3.92;;
19861;SDS011;10093;48.148;8.542;2023-06-10T07:28:44;7.85;;;4.20;;
19861;SDS011;10093;48.148;8.542;2023-06-10T07:31:10;12.27;;;4.53;;
19861;SDS011;10093;48.148;8.542;2023-06-10T07:33:37;9.02;;;4.70;;
19861;SDS011;10093;48.148;8.542;2023-06-10T07:36:04;9.73;;;4.68;;
19861;SDS011;10093;48.148;8.542;2023-06-10T07:38:30;7.25;;;4.35;;
19861;SDS011;10093;48.148;8.542;2023-06-10T07:40:56;9.15;;;4.32;;
19861;SDS011;10093;48.148;8.542;2023-06-10T07:43:21;23.85;;;5.15;;
19861;SDS011;10093;48.148;8.542;2023-06-10T07:45:47;12.40;;;4.65;;
19861;SDS011;10093;48.148;8.542;2023-06-10T07:48:13;8.23;;;5.28;;
19861;SDS011;10093;48.148;8.542;2023-06-10T07:50:38;7.57;;;4.65;;
19861;SDS011;10093;48.148;8.542;2023-06-10T07:53:05;4.97;;;3.92;;
19861;SDS011;10093;48.148;8.542;2023-06-10T07:55:31;5.05;;;4.60;;
19861;SDS011;10093;48.148;8.542;2023-06-10T07:57:56;5.38;;;4.25;;
19861;SDS011;10093;48.148;8.542;2023-06-10T08:00:22;8.15;;;4.13;;
19861;SDS011;10093;48.148;8.542;2023-06-10T08:02:47;4.70;;;4.30;;
19861;SDS011;10093;48.148;8.542;2023-06-10T08:05:13;7.55;;;4.95;;
19861;SDS011;10093;48.148;8.542;2023-06-10T08:07:39;5.85;;;5.30;;
19861;SDS011;10093;48.148;8.542;2023-06-10T08:10:05;10.65;;;4.95;;
19861;SDS011;10093;48.148;8.542;2023-06-10T08:12:32;8.30;;;5.22;;
19861;SDS011;10093;48.148;8.542;2023-06-10T08:14:58;6.00;;;4.28;;
19861;SDS011;10093;48.148;8.542;2023-06-10T08:17:23;11.05;;;5.00;;
19861;SDS011;10093;48.148;8.542;2023-06-10T08:19:49;13.20;;;4.43;;
19861;SDS011;10093;48.148;8.542;2023-06-10T08:22:15;8.60;;;5.07;;
19861;SDS011;10093;48.148;8.542;2023-06-10T08:24:40;13.52;;;5.28;;
19861;SDS011;10093;48.148;8.542;2023-06-10T08:27:06;10.18;;;4.15;;
19861;SDS011;10093;48.148;8.542;2023-06-10T08:29:32;7.22;;;4.60;;
19861;SDS011;10093;48.148;8.542;2023-06-10T08:31:57;8.27;;;4.15;;
19861;SDS011;10093;48.148;8.542;2023-06-10T08:34:23;5.03;;;3.60;;
19861;SDS011;10093;48.148;8.542;2023-06-10T08:36:49;6.50;;;4.20;;
19861;SDS011;10093;48.148;8.542;2023-06-10T08:39:18;7.28;;;4.45;;
19861;SDS011;10093;48.148;8.542;2023-06-10T08:41:56;6.45;;;4.50;;
19861;SDS011;10093;48.148;8.542;2023-06-10T08:44:36;6.45;;;3.80;;
19861;SDS011;10093;48.148;8.542;2023-06-10T08:47:15;4.60;;;4.20;;
19861;SDS011;10093;48.148;8.542;2023-06-10T08:49:46;4.60;;;4.20;;
19861;SDS011;10093;48.148;8.542;2023-06-10T08:52:21;5.45;;;4.20;;
19861;SDS011;10093;48.148;8.542;2023-06-10T08:54:48;6.80;;;5.57;;
19861;SDS011;10093;48.148;8.542;2023-06-10T08:57:18;5.28;;;4.70;;
19861;SDS011;10093;48.148;8.542;2023-06-10T08:59:46;4.80;;;4.18;;
19861;SDS011;10093;48.148;8.542;2023-06-10T09:02:12;10.70;;;4.68;;
19861;SDS011;10093;48.148;8.542;2023-06-10T09:04:40;5.03;;;4.55;;
19861;SDS011;10093;48.148;8.542;2023-06-10T09:07:11;5.95;;;4.38;;
19861;SDS011;10093;48.148;8.542;2023-06-10T09:09:39;5.25;;;4.72;;
19861;SDS011;10093;48.148;8.542;2023-06-10T09:12:06;9.38;;;4.95;;
19861;SDS011;10093;48.148;8.542;2023-06-10T09:14:32;5.88;;;5.30;;
19861;SDS011;10093;48.148;8.542;2023-06-10T09:16:58;5.22;;;4.50;;
19861;SDS011;10093;48.148;8.542;2023-06-10T09:19:27;5.88;;;4.53;;
19861;SDS011;10093;48.148;8.542;2023-06-10T09:21:54;6.60;;;4.55;;
19861;SDS011;10093;48.148;8.542;2023-06-10T09:24:21;6.18;;;4.13;;
19861;SDS011;10093;48.148;8.542;2023-06-10T09:26:48;4.55;;;4.13;;
19861;SDS011;10093;48.148;8.542;2023-06-10T09:29:15;5.20;;;4.55;;
19861;SDS011;10093;48.148;8.542;2023-06-10T09:31:42;4.60;;;4.28;;
19861;SDS011;10093;48.148;8.542;2023-06-10T09:34:09;4.43;;;4.13;;
19861;SDS011;10093;48.148;8.542;2023-06-10T09:36:35;7.57;;;5.28;;
19861;SDS011;10093;48.148;8.542;2023-06-10T09:39:02;6.00;;;5.43;;
19861;SDS011;10093;48.148;8.542;2023-06-10T09:41:35;6.45;;;5.40;;
19861;SDS011;10093;48.148;8.542;2023-06-10T09:44:06;7.75;;;5.72;;
19861;SDS011;10093;48.148;8.542;2023-06-10T09:46:39;8.85;;;5.68;;
19861;SDS011;10093;48.148;8.542;2023-06-10T09:49:05;6.90;;;5.78;;
19861;SDS011;10093;48.148;8.542;2023-06-10T09:51:31;7.95;;;5.65;;
19861;SDS011;10093;48.148;8.542;2023-06-10T09:53:57;6.07;;;5.47;;
19861;SDS011;10093;48.148;8.542;2023-06-10T09:56:36;6.57;;;5.93;;
19861;SDS011;10093;48.148;8.542;2023-06-10T09:59:02;5.90;;;5.30;;
19861;SDS011;10093;48.148;8.542;2023-06-10T10:01:31;5.50;;;5.00;;
19861;SDS011;10093;48.148;8.542;2023-06-10T10:03:58;5.57;;;4.82;;
19861;SDS011;10093;48.148;8.542;2023-06-10T10:06:24;6.50;;;4.78;;
19861;SDS011;10093;48.148;8.542;2023-06-10T10:08:50;11.10;;;5.32;;
19861;SDS011;10093;48.148;8.542;2023-06-10T10:11:17;8.32;;;5.47;;
19861;SDS011;10093;48.148;8.542;2023-06-10T10:13:48;5.55;;;5.00;;
19861;SDS011;10093;48.148;8.542;2023-06-10T10:16:16;5.90;;;5.18;;
19861;SDS011;10093;48.148;8.542;2023-06-10T10:18:52;5.82;;;4.78;;
19861;SDS011;10093;48.148;8.542;2023-06-10T10:21:26;5.18;;;4.78;;
19861;SDS011;10093;48.148;8.542;2023-06-10T10:24:00;4.93;;;4.00;;
19861;SDS011;10093;48.148;8.542;2023-06-10T10:26:30;5.65;;;3.83;;
19861;SDS011;10093;48.148;8.542;2023-06-10T10:29:10;4.53;;;4.10;;
19861;SDS011;10093;48.148;8.542;2023-06-10T10:31:41;3.80;;;3.45;;
19861;SDS011;10093;48.148;8.542;2023-06-10T10:34:15;4.25;;;3.85;;
19861;SDS011;10093;48.148;8.542;2023-06-10T10:36:44;4.28;;;3.88;;
19861;SDS011;10093;48.148;8.542;2023-06-10T10:39:11;6.05;;;4.13;;
19861;SDS011;10093;48.148;8.542;2023-06-10T10:41:37;4.75;;;4.13;;
19861;SDS011;10093;48.148;8.542;2023-06-10T10:44:05;5.32;;;4.53;;
19861;SDS011;10093;48.148;8.542;2023-06-10T10:46:41;5.70;;;4.43;;
19861;SDS011;10093;48.148;8.542;2023-06-10T10:49:13;6.85;;;4.78;;
19861;SDS011;10093;48.148;8.542;2023-06-10T10:51:53;6.78;;;4.20;;
19861;SDS011;10093;48.148;8.542;2023-06-10T10:54:29;5.00;;;4.60;;
19861;SDS011;10093;48.148;8.542;2023-06-10T11:02:41;4.88;;;4.47;;
19861;SDS011;10093;48.148;8.542;2023-06-10T11:05:10;5.40;;;5.00;;
19861;SDS011;10093;48.148;8.542;2023-06-10T11:07:37;4.30;;;3.90;;
19861;SDS011;10093;48.148;8.542;2023-06-10T11:12:53;11.10;;;3.97;;
19861;SDS011;10093;48.148;8.542;2023-06-10T11:23:10;5.00;;;4.50;;
19861;SDS011;10093;48.148;8.542;2023-06-10T11:25:49;10.20;;;3.88;;
19861;SDS011;10093;48.148;8.542;2023-06-10T11:28:18;4.20;;;3.35;;
19861;SDS011;10093;48.148;8.542;2023-06-10T11:30:45;4.57;;;3.85;;
19861;SDS011;10093;48.148;8.542;2023-06-10T11:33:14;4.85;;;3.83;;
19861;SDS011;10093;48.148;8.542;2023-06-10T11:35:41;4.47;;;4.07;;
19861;SDS011;10093;48.148;8.542;2023-06-10T11:38:08;6.90;;;3.53;;
19861;SDS011;10093;48.148;8.542;2023-06-10T11:40:34;3.97;;;3.58;;
19861;SDS011;10093;48.148;8.542;2023-06-10T11:43:01;3.78;;;3.47;;
19861;SDS011;10093;48.148;8.542;2023-06-10T11:45:28;4.45;;;3.90;;
19861;SDS011;10093;48.148;8.542;2023-06-10T11:47:57;4.63;;;3.47;;
19861;SDS011;10093;48.148;8.542;2023-06-10T11:50:33;3.25;;;3.05;;
19861;SDS011;10093;48.148;8.542;2023-06-10T11:52:59;3.90;;;2.90;;
19861;SDS011;10093;48.148;8.542;2023-06-10T11:55:44;2.80;;;2.60;;
19861;SDS011;10093;48.148;8.542;2023-06-10T11:58:14;3.30;;;3.03;;
19861;SDS011;10093;48.148;8.542;2023-06-10T12:00:58;6.07;;;3.00;;
19861;SDS011;10093;48.148;8.542;2023-06-10T12:03:26;3.25;;;2.80;;
19861;SDS011;10093;48.148;8.542;2023-06-10T12:06:04;2.72;;;2.50;;
19861;SDS011;10093;48.148;8.542;2023-06-10T12:08:31;2.58;;;2.05;;
19861;SDS011;10093;48.148;8.542;2023-06-10T12:10:57;3.40;;;2.15;;
19861;SDS011;10093;48.148;8.542;2023-06-10T12:13:25;2.25;;;2.05;;
19861;SDS011;10093;48.148;8.542;2023-06-10T12:15:52;2.08;;;1.98;;
19861;SDS011;10093;48.148;8.542;2023-06-10T12:20:44;2.10;;;2.00;;
19861;SDS011;10093;48.148;8.542;2023-06-10T12:23:10;3.05;;;2.05;;
19861;SDS011;10093;48.148;8.542;2023-06-10T12:25:36;2.65;;;2.40;;
19861;SDS011;10093;48.148;8.542;2023-06-10T12:28:03;4.20;;;2.20;;
19861;SDS011;10093;48.148;8.542;2023-06-10T12:30:29;2.20;;;2.03;;
19861;SDS011;10093;48.148;8.542;2023-06-10T12:32:56;3.03;;;2.30;;
19861;SDS011;10093;48.148;8.542;2023-06-10T12:35:23;2.10;;;1.92;;
19861;SDS011;10093;48.148;8.542;2023-06-10T12:37:57;2.63;;;1.73;;
19861;SDS011;10093;48.148;8.542;2023-06-10T12:40:34;2.10;;;2.00;;
19861;SDS011;10093;48.148;8.542;2023-06-10T12:43:05;2.65;;;2.45;;
19861;SDS011;10093;48.148;8.542;2023-06-10T12:45:34;3.10;;;2.15;;
19861;SDS011;10093;48.148;8.542;2023-06-10T12:48:34;5.35;;;2.28;;
19861;SDS011;10093;48.148;8.542;2023-06-10T12:50:54;3.08;;;2.13;;
19861;SDS011;10093;48.148;8.542;2023-06-10T12:53:22;2.28;;;1.80;;
19861;SDS011;10093;48.148;8.542;2023-06-10T12:55:49;5.07;;;1.75;;
19861;SDS011;10093;48.148;8.542;2023-06-10T12:58:15;1.90;;;1.80;;
19861;SDS011;10093;48.148;8.542;2023-06-10T13:00:41;4.10;;;2.05;;
19861;SDS011;10093;48.148;8.542;2023-06-10T13:03:08;1.73;;;1.63;;
19861;SDS011;10093;48.148;8.542;2023-06-10T13:05:35;1.83;;;1.73;;
19861;SDS011;10093;48.148;8.542;2023-06-10T13:08:03;1.85;;;1.73;;
19861;SDS011;10093;48.148;8.542;2023-06-10T13:10:30;1.85;;;1.75;;
19861;SDS011;10093;48.148;8.542;2023-06-10T13:12:56;2.88;;;1.95;;
19861;SDS011;10093;48.148;8.542;2023-06-10T13:15:21;2.47;;;2.00;;
19861;SDS011;10093;48.148;8.542;2023-06-10T13:17:47;1.77;;;1.67;;
19861;SDS011;10093;48.148;8.542;2023-06-10T13:20:14;3.40;;;1.92;;
19861;SDS011;10093;48.148;8.542;2023-06-10T13:22:41;2.75;;;2.08;;
19861;SDS011;10093;48.148;8.542;2023-06-10T13:25:07;6.93;;;2.05;;
19861;SDS011;10093;48.148;8.542;2023-06-10T13:27:34;2.10;;;2.00;;
19861;SDS011;10093;48.148;8.542;2023-06-10T13:30:05;2.40;;;2.00;;
19861;SDS011;10093;48.148;8.542;2023-06-10T13:32:32;2.22;;;2.13;;
19861;SDS011;10093;48.148;8.542;2023-06-10T13:34:57;2.40;;;2.20;;
19861;SDS011;10093;48.148;8.542;2023-06-10T13:37:23;2.35;;;1.73;;
19861;SDS011;10093;48.148;8.542;2023-06-10T13:39:49;3.05;;;1.65;;
19861;SDS011;10093;48.148;8.542;2023-06-10T13:42:18;1.77;;;1.67;;
19861;SDS011;10093;48.148;8.542;2023-06-10T13:44:45;1.60;;;1.50;;
19861;SDS011;10093;48.148;8.542;2023-06-10T13:47:12;2.50;;;1.70;;
19861;SDS011;10093;48.148;8.542;2023-06-10T13:49:38;1.92;;;1.83;;
19861;SDS011;10093;48.148;8.542;2023-06-10T13:52:05;4.00;;;1.83;;
19861;SDS011;10093;48.148;8.542;2023-06-10T13:54:31;1.77;;;1.67;;
19861;SDS011;10093;48.148;8.542;2023-06-10T13:56:57;2.00;;;1.70;;
19861;SDS011;10093;48.148;8.542;2023-06-10T13:59:24;1.52;;;1.42;;
19861;SDS011;10093;48.148;8.542;2023-06-10T14:01:49;2.13;;;1.90;;
19861;SDS011;10093;48.148;8.542;2023-06-10T14:04:15;2.47;;;1.83;;
19861;SDS011;10093;48.148;8.542;2023-06-10T14:06:40;2.03;;;1.92;;
19861;SDS011;10093;48.148;8.542;2023-06-10T14:09:06;2.00;;;1.90;;
19861;SDS011;10093;48.148;8.542;2023-06-10T14:11:32;2.45;;;2.28;;
19861;SDS011;10093;48.148;8.542;2023-06-10T14:13:58;2.35;;;1.83;;
19861;SDS011;10093;48.148;8.542;2023-06-10T14:16:26;1.80;;;1.65;;
19861;SDS011;10093;48.148;8.542;2023-06-10T14:18:52;1.80;;;1.70;;
19861;SDS011;10093;48.148;8.542;2023-06-10T14:21:18;2.95;;;2.05;;
19861;SDS011;10093;48.148;8.542;2023-06-10T14:23:43;2.20;;;2.10;;
19861;SDS011;10093;48.148;8.542;2023-06-10T14:26:10;2.28;;;2.08;;
19861;SDS011;10093;48.148;8.542;2023-06-10T14:28:36;2.10;;;1.98;;
19861;SDS011;10093;48.148;8.542;2023-06-10T14:31:02;2.08;;;1.80;;
19861;SDS011;10093;48.148;8.542;2023-06-10T14:33:28;8.40;;;2.60;;
19861;SDS011;10093;48.148;8.542;2023-06-10T14:35:53;16.77;;;2.92;;
19861;SDS011;10093;48.148;8.542;2023-06-10T14:38:19;14.27;;;2.92;;
19861;SDS011;10093;48.148;8.542;2023-06-10T14:40:45;11.60;;;3.10;;
19861;SDS011;10093;48.148;8.542;2023-06-10T14:43:10;5.43;;;3.00;;
19861;SDS011;10093;48.148;8.542;2023-06-10T14:45:36;6.05;;;2.95;;
19861;SDS011;10093;48.148;8.542;2023-06-10T14:48:03;3.10;;;2.65;;
19861;SDS011;10093;48.148;8.542;2023-06-10T14:50:29;3.47;;;2.70;;
19861;SDS011;10093;48.148;8.542;2023-06-10T14:52:55;3.95;;;2.97;;
19861;SDS011;10093;48.148;8.542;2023-06-10T14:55:20;3.05;;;2.50;;
19861;SDS011;10093;48.148;8.542;2023-06-10T14:57:47;3.13;;;2.83;;
19861;SDS011;10093;48.148;8.542;2023-06-10T15:00:13;4.05;;;2.88;;
19861;SDS011;10093;48.148;8.542;2023-06-10T15:02:41;3.47;;;2.90;;
19861;SDS011;10093;48.148;8.542;2023-06-10T15:05:08;3.05;;;2.85;;
19861;SDS011;10093;48.148;8.542;2023-06-10T15:07:33;2.63;;;2.38;;
19861;SDS011;10093;48.148;8.542;2023-06-10T15:09:59;2.38;;;2.28;;
19861;SDS011;10093;48.148;8.542;2023-06-10T15:12:25;2.95;;;2.50;;
19861;SDS011;10093;48.148;8.542;2023-06-10T15:14:50;4.43;;;2.60;;